Time;durP1;ratioP1;P1;durP2;ratioP2;P2;SDS_P1;SDS_P2;PMS_P1;PMS_P2;Temp;Humidity;BMP_temperature;BMP_pressure;BME280_temperature;BME280_humidity;BME280_pressure;Samples;Min_cycle;Max_cycle;Signal;HPM_P1;HPM_P2
2022/08/31 00:05:05;;;;;;;3.78;0.47;;;12.70;99.90;;;;;;6181681;23;20025;-75
2022/08/31 00:07:33;;;;;;;5.47;0.68;;;12.70;99.90;;;;;;6183107;23;20032;-74
2022/08/31 00:10:12;;;;;;;4.05;0.50;;;12.70;99.90;;;;;;6181913;23;20049;-76
2022/08/31 00:12:41;;;;;;;3.00;0.45;;;12.70;99.90;;;;;;6155898;23;20040;-75
2022/08/31 00:15:11;;;;;;;0.93;0.40;;;12.70;99.90;;;;;;6182254;23;20083;-75
2022/08/31 00:17:39;;;;;;;0.50;0.47;;;12.70;99.90;;;;;;6155549;23;20357;-74
2022/08/31 00:20:09;;;;;;;2.75;0.70;;;12.70;99.90;;;;;;6182523;23;20047;-75
2022/08/31 00:22:36;;;;;;;1.70;0.55;;;12.70;99.90;;;;;;6182846;23;20021;-75
2022/08/31 00:25:06;;;;;;;0.47;0.35;;;12.70;99.90;;;;;;6183272;23;20041;-76
2022/08/31 00:27:34;;;;;;;2.42;0.68;;;12.70;99.90;;;;;;6181484;23;20147;-75
2022/08/31 00:30:01;;;;;;;1.88;0.40;;;12.70;99.90;;;;;;6156026;23;20021;-75
2022/08/31 00:32:30;;;;;;;5.05;0.50;;;12.70;99.90;;;;;;6155473;23;20458;-75
2022/08/31 00:34:58;;;;;;;1.25;0.40;;;12.70;99.90;;;;;;6183011;23;20079;-75
2022/08/31 00:37:25;;;;;;;1.20;0.50;;;12.60;99.90;;;;;;6181099;23;20706;-75
2022/08/31 00:39:53;;;;;;;0.63;0.38;;;12.60;99.90;;;;;;6182326;23;20024;-75
2022/08/31 00:42:23;;;;;;;0.52;0.40;;;12.60;99.90;;;;;;6182960;23;20569;-76
2022/08/31 00:44:50;;;;;;;0.68;0.40;;;12.60;99.90;;;;;;6183142;23;20029;-76
2022/08/31 00:47:18;;;;;;;1.80;0.45;;;12.60;99.90;;;;;;6179788;23;20025;-75
2022/08/31 00:49:50;;;;;;;2.55;0.40;;;12.60;99.90;;;;;;6183160;23;20025;-76
2022/08/31 00:52:22;;;;;;;3.40;0.50;;;12.60;99.90;;;;;;6183063;23;20056;-75
2022/08/31 00:54:53;;;;;;;3.47;1.20;;;12.50;99.90;;;;;;6183032;23;20021;-75
2022/08/31 00:57:24;;;;;;;2.05;0.50;;;12.50;99.90;;;;;;6156138;23;20029;-76
2022/08/31 00:59:52;;;;;;;1.05;0.40;;;12.50;99.90;;;;;;6181339;23;20021;-74
2022/08/31 01:02:19;;;;;;;0.68;0.55;;;12.50;99.90;;;;;;6182932;23;20021;-75
2022/08/31 01:04:46;;;;;;;1.63;0.40;;;12.50;99.90;;;;;;6154543;23;20530;-75
2022/08/31 01:07:14;;;;;;;2.63;0.38;;;12.50;99.90;;;;;;6182396;23;20478;-75
2022/08/31 01:09:43;;;;;;;1.15;0.45;;;12.50;99.90;;;;;;6154608;23;20350;-75
2022/08/31 01:12:12;;;;;;;3.83;0.70;;;12.50;99.90;;;;;;6182051;23;20021;-75
2022/08/31 01:14:42;;;;;;;2.33;0.60;;;12.50;99.90;;;;;;6180897;23;20025;-75
2022/08/31 01:17:09;;;;;;;1.50;0.45;;;12.50;99.90;;;;;;6156465;23;20084;-77
2022/08/31 01:19:41;;;;;;;0.70;0.40;;;12.50;99.90;;;;;;6129643;23;20109;-75
2022/08/31 01:22:17;;;;;;;2.03;0.40;;;12.50;99.90;;;;;;6182981;23;20091;-75
2022/08/31 01:24:48;;;;;;;0.68;0.40;;;12.50;99.90;;;;;;6154905;23;20027;-76
2022/08/31 01:27:20;;;;;;;1.15;0.50;;;12.50;99.90;;;;;;6181264;23;20055;-76
2022/08/31 01:29:47;;;;;;;1.23;1.00;;;12.40;99.90;;;;;;6182216;23;20024;-76
2022/08/31 01:32:15;;;;;;;1.20;0.38;;;12.40;99.90;;;;;;6180845;23;20379;-76
2022/08/31 01:34:42;;;;;;;0.85;0.30;;;12.40;99.90;;;;;;6131425;23;20021;-76
2022/08/31 01:37:10;;;;;;;3.13;0.50;;;12.40;99.90;;;;;;6154340;23;20056;-75
2022/08/31 01:39:37;;;;;;;1.58;0.50;;;12.40;99.90;;;;;;6180307;23;20449;-75
2022/08/31 01:42:06;;;;;;;1.23;0.50;;;12.40;99.90;;;;;;6180856;23;20021;-76
2022/08/31 01:44:34;;;;;;;1.00;0.40;;;12.40;99.90;;;;;;6181009;23;20028;-76
2022/08/31 01:47:02;;;;;;;1.15;0.50;;;12.40;99.90;;;;;;6154277;23;20060;-76
2022/08/31 01:49:29;;;;;;;0.82;0.50;;;12.40;99.90;;;;;;6156271;23;20027;-75
2022/08/31 01:51:56;;;;;;;0.65;0.65;;;12.40;99.90;;;;;;6181196;23;20032;-75
2022/08/31 01:54:26;;;;;;;1.13;0.30;;;12.40;99.90;;;;;;6155935;23;20025;-75
2022/08/31 01:56:55;;;;;;;0.95;0.77;;;12.40;99.90;;;;;;6182942;23;20087;-75
2022/08/31 01:59:46;;;;;;;1.20;0.38;;;12.40;99.90;;;;;;6178678;23;20676;-75
2022/08/31 02:02:36;;;;;;;2.00;1.13;;;12.40;99.90;;;;;;6182059;23;20021;-75
2022/08/31 02:05:05;;;;;;;0.55;0.50;;;12.40;99.90;;;;;;6182327;23;20048;-75
2022/08/31 02:07:32;;;;;;;0.60;0.50;;;12.30;99.90;;;;;;6182779;23;20476;-75
2022/08/31 02:10:00;;;;;;;3.80;0.50;;;12.30;99.90;;;;;;6156138;23;20025;-75
2022/08/31 02:12:27;;;;;;;0.85;0.57;;;12.30;99.90;;;;;;6157889;23;20398;-75
2022/08/31 02:14:56;;;;;;;0.63;0.50;;;12.30;99.90;;;;;;6157502;23;20024;-75
2022/08/31 02:17:23;;;;;;;4.47;0.60;;;12.20;99.90;;;;;;6132848;23;20124;-75
2022/08/31 02:19:51;;;;;;;0.98;0.60;;;12.20;99.90;;;;;;6156382;23;20446;-75
2022/08/31 02:22:18;;;;;;;0.65;0.60;;;12.20;99.90;;;;;;6157401;23;20048;-75
2022/08/31 02:24:46;;;;;;;0.85;0.40;;;12.20;99.90;;;;;;6182304;23;20025;-74
2022/08/31 02:27:13;;;;;;;1.35;0.77;;;12.20;99.90;;;;;;6184130;23;20056;-75
2022/08/31 02:29:41;;;;;;;1.02;0.50;;;12.20;99.90;;;;;;6180559;23;20020;-74
2022/08/31 02:32:11;;;;;;;0.57;0.57;;;12.20;99.90;;;;;;6157793;23;20020;-75
2022/08/31 02:34:39;;;;;;;1.40;0.50;;;12.20;99.90;;;;;;6157199;23;20053;-75
2022/08/31 02:37:08;;;;;;;3.75;0.63;;;12.20;99.90;;;;;;6156971;23;20050;-75
2022/08/31 02:39:36;;;;;;;0.45;0.45;;;12.10;99.90;;;;;;6183222;23;20052;-74
2022/08/31 02:42:04;;;;;;;1.63;0.73;;;12.10;99.90;;;;;;6132803;23;20021;-75
2022/08/31 02:44:31;;;;;;;0.88;0.70;;;12.10;99.90;;;;;;6183923;23;20108;-74
2022/08/31 02:46:58;;;;;;;1.58;0.60;;;12.10;99.90;;;;;;6155644;23;20028;-76
2022/08/31 02:49:46;;;;;;;0.73;0.60;;;12.10;99.90;;;;;;6183977;23;20509;-75
2022/08/31 02:52:14;;;;;;;1.17;0.63;;;12.10;99.90;;;;;;6156037;23;20021;-76
2022/08/31 02:54:41;;;;;;;1.30;0.60;;;12.10;99.90;;;;;;6183467;23;20096;-75
2022/08/31 02:57:09;;;;;;;1.17;0.57;;;12.10;99.90;;;;;;6131284;23;20463;-76
2022/08/31 02:59:36;;;;;;;2.72;0.98;;;12.10;99.90;;;;;;6157098;23;20055;-75
2022/08/31 03:02:04;;;;;;;1.33;0.60;;;12.10;99.90;;;;;;6156374;23;20021;-76
2022/08/31 03:04:33;;;;;;;2.15;0.90;;;12.10;99.90;;;;;;6157165;23;20021;-76
2022/08/31 03:07:02;;;;;;;1.95;0.68;;;12.10;99.90;;;;;;6182243;23;20335;-77
2022/08/31 03:09:31;;;;;;;3.90;0.95;;;12.20;99.90;;;;;;6132538;23;20024;-76
2022/08/31 03:11:58;;;;;;;8.98;4.43;;;12.10;99.90;;;;;;6157715;23;20409;-77
2022/08/31 03:14:26;;;;;;;2.05;1.00;;;12.10;99.90;;;;;;6180904;23;20031;-77
2022/08/31 03:16:54;;;;;;;3.42;0.95;;;12.20;99.90;;;;;;6156686;23;20091;-77
2022/08/31 03:19:22;;;;;;;0.52;0.45;;;12.20;99.90;;;;;;6156638;23;20370;-77
2022/08/31 03:21:49;;;;;;;3.90;1.25;;;12.20;99.90;;;;;;6157182;23;20020;-76
2022/08/31 03:24:20;;;;;;;2.50;0.80;;;12.20;99.90;;;;;;6155164;23;20052;-77
2022/08/31 03:26:48;;;;;;;1.30;1.00;;;12.20;99.90;;;;;;6157067;23;20362;-77
2022/08/31 03:29:16;;;;;;;1.52;1.23;;;12.20;99.90;;;;;;6181772;23;20025;-76
2022/08/31 03:31:55;;;;;;;2.50;1.08;;;12.20;99.90;;;;;;6157091;23;20029;-74
2022/08/31 03:34:24;;;;;;;3.33;1.50;;;12.30;99.90;;;;;;6155782;23;20052;-74
2022/08/31 03:36:51;;;;;;;3.97;1.70;;;12.30;99.90;;;;;;6182912;23;20052;-74
2022/08/31 03:39:20;;;;;;;3.65;1.38;;;12.30;99.90;;;;;;6154813;23;20029;-73
2022/08/31 03:41:48;;;;;;;2.38;1.05;;;12.30;99.90;;;;;;6156919;23;20481;-73
2022/08/31 03:44:18;;;;;;;3.50;1.20;;;12.30;99.90;;;;;;6154929;23;20051;-72
2022/08/31 03:46:49;;;;;;;4.10;1.30;;;12.30;99.90;;;;;;6131500;23;20115;-73
2022/08/31 03:49:18;;;;;;;1.33;0.88;;;12.30;99.90;;;;;;6156689;23;20072;-73
2022/08/31 03:52:01;;;;;;;2.90;1.17;;;12.30;99.90;;;;;;6130592;23;20383;-73
2022/08/31 03:54:32;;;;;;;4.00;1.50;;;12.30;99.90;;;;;;6181526;23;20362;-72
2022/08/31 03:56:59;;;;;;;3.50;0.70;;;12.30;99.90;;;;;;6182165;23;20051;-73
2022/08/31 03:59:27;;;;;;;4.47;1.13;;;12.30;99.90;;;;;;6180787;23;20068;-73
2022/08/31 04:02:27;;;;;;;2.35;1.02;;;12.30;99.90;;;;;;6090548;23;20024;-73
2022/08/31 04:05:27;;;;;;;2.80;1.00;;;12.30;99.90;;;;;;6091852;23;20025;-73
2022/08/31 04:08:14;;;;;;;2.17;0.75;;;12.30;99.90;;;;;;6156353;23;20039;-72
2022/08/31 04:10:51;;;;;;;1.35;0.93;;;12.20;99.90;;;;;;6180644;23;20021;-73
2022/08/31 04:13:24;;;;;;;2.45;1.40;;;12.30;99.90;;;;;;6182770;23;20017;-73
2022/08/31 04:16:27;;;;;;;1.07;0.80;;;12.30;99.90;;;;;;6090352;23;20050;-72
2022/08/31 04:19:16;;;;;;;3.45;1.30;;;12.20;99.90;;;;;;6176146;23;20035;-73
2022/08/31 04:22:01;;;;;;;3.47;1.63;;;12.30;99.90;;;;;;6183471;23;20021;-73
2022/08/31 04:24:29;;;;;;;4.57;1.02;;;12.30;99.90;;;;;;6131958;23;20032;-73
2022/08/31 04:26:58;;;;;;;2.00;1.08;;;12.30;99.90;;;;;;6131379;23;20021;-73
2022/08/31 04:29:26;;;;;;;1.35;0.80;;;12.30;99.90;;;;;;6154717;23;20075;-75
2022/08/31 04:31:55;;;;;;;13.95;1.33;;;12.30;99.90;;;;;;6157113;23;20032;-75
2022/08/31 04:34:24;;;;;;;0.73;0.70;;;12.40;99.90;;;;;;6156888;23;20024;-75
2022/08/31 04:36:52;;;;;;;3.00;0.80;;;12.40;99.90;;;;;;6155761;23;20063;-75
2022/08/31 04:39:21;;;;;;;4.55;0.82;;;12.40;99.90;;;;;;6181524;23;20076;-74
2022/08/31 04:41:49;;;;;;;1.45;0.60;;;12.40;99.90;;;;;;6181935;23;20032;-74
2022/08/31 04:44:18;;;;;;;1.60;0.70;;;12.40;99.90;;;;;;6154955;23;20096;-74
2022/08/31 04:46:47;;;;;;;1.48;0.73;;;12.40;99.90;;;;;;6131226;23;20017;-74
2022/08/31 04:49:16;;;;;;;1.00;0.95;;;12.40;99.90;;;;;;6179192;23;20060;-74
2022/08/31 04:51:44;;;;;;;1.25;0.75;;;12.40;99.90;;;;;;6181757;23;20107;-74
2022/08/31 04:54:14;;;;;;;1.15;0.93;;;12.50;99.90;;;;;;6182335;23;20025;-74
2022/08/31 04:56:45;;;;;;;2.33;1.73;;;12.50;99.90;;;;;;6130519;23;20481;-74
2022/08/31 04:59:26;;;;;;;0.68;0.57;;;12.50;99.90;;;;;;6156732;23;20029;-75
2022/08/31 05:02:29;;;;;;;1.02;0.63;;;12.50;99.90;;;;;;6182115;23;20028;-76
2022/08/31 05:05:13;;;;;;;0.65;0.60;;;12.50;99.90;;;;;;6157007;23;20414;-77
2022/08/31 05:07:42;;;;;;;1.88;0.80;;;12.50;99.90;;;;;;6181119;23;20108;-76
2022/08/31 05:10:10;;;;;;;11.15;3.10;;;12.50;99.90;;;;;;6154080;23;20131;-77
2022/08/31 05:12:38;;;;;;;3.40;1.42;;;12.50;99.90;;;;;;6155387;23;20032;-76
2022/08/31 05:15:08;;;;;;;1.20;0.90;;;12.40;99.90;;;;;;6130735;23;20385;-76
2022/08/31 05:17:36;;;;;;;3.80;1.15;;;12.40;99.90;;;;;;6132138;23;20025;-77
2022/08/31 05:20:06;;;;;;;1.30;0.88;;;12.40;99.90;;;;;;6181668;23;20060;-77
2022/08/31 05:22:37;;;;;;;7.25;2.00;;;12.30;99.90;;;;;;6128765;23;20914;-76
2022/08/31 05:25:08;;;;;;;19.58;3.08;;;12.30;99.90;;;;;;6179324;23;20031;-76
2022/08/31 05:27:38;;;;;;;12.98;1.83;;;12.30;99.90;;;;;;6180767;23;20036;-75
2022/08/31 05:30:10;;;;;;;2.75;1.50;;;12.30;99.90;;;;;;6155048;23;20087;-74
2022/08/31 05:32:56;;;;;;;2.13;1.00;;;12.30;99.90;;;;;;6157198;23;20076;-76
2022/08/31 05:35:24;;;;;;;2.47;1.05;;;12.30;99.90;;;;;;6181849;23;20390;-75
2022/08/31 05:37:51;;;;;;;1.88;1.10;;;12.40;99.90;;;;;;6182431;23;20032;-76
2022/08/31 05:40:20;;;;;;;1.88;1.20;;;12.30;99.90;;;;;;6156412;23;20031;-75
2022/08/31 05:42:48;;;;;;;1.77;0.77;;;12.30;99.90;;;;;;6155090;23;20362;-74
2022/08/31 05:45:18;;;;;;;1.30;0.90;;;12.30;99.90;;;;;;6182169;23;20059;-74
2022/08/31 05:47:46;;;;;;;1.30;0.70;;;12.30;99.90;;;;;;6182701;23;20025;-73
2022/08/31 05:50:14;;;;;;;2.95;0.98;;;12.30;99.90;;;;;;6157292;23;20414;-75
2022/08/31 05:52:43;;;;;;;2.03;0.55;;;12.40;99.90;;;;;;6156638;23;20031;-76
2022/08/31 05:55:11;;;;;;;1.80;0.55;;;12.30;99.90;;;;;;6158023;23;20021;-77
2022/08/31 05:57:39;;;;;;;4.93;1.50;;;12.30;99.90;;;;;;6183827;23;20104;-78
2022/08/31 06:00:09;;;;;;;7.97;1.10;;;12.30;99.90;;;;;;6157464;23;20045;-78
2022/08/31 06:02:41;;;;;;;;;;;12.30;99.90;;;;;;6183137;23;20481;-75
2022/08/31 06:05:12;;;;;;;1.60;0.95;;;12.30;99.90;;;;;;6158634;23;19920;-78
2022/08/31 06:07:55;;;;;;;1.33;0.70;;;12.30;99.90;;;;;;6154796;23;20458;-77
2022/08/31 06:10:24;;;;;;;1.10;0.73;;;12.30;99.90;;;;;;6150348;23;20107;-77
2022/08/31 06:12:51;;;;;;;2.60;1.17;;;12.30;99.90;;;;;;6154051;23;20048;-76
2022/08/31 06:15:19;;;;;;;1.25;0.70;;;12.30;99.90;;;;;;6182157;23;20107;-77
2022/08/31 06:17:49;;;;;;;1.52;0.68;;;12.30;99.90;;;;;;6131490;23;20020;-79
2022/08/31 06:20:17;;;;;;;2.38;0.80;;;12.20;99.90;;;;;;6181044;23;20059;-80
2022/08/31 06:22:45;;;;;;;3.13;0.75;;;12.30;99.90;;;;;;6182765;23;20528;-76
2022/08/31 06:25:22;;;;;;;0.77;0.50;;;12.30;99.90;;;;;;6153117;23;20025;-78
2022/08/31 06:27:50;;;;;;;2.05;0.70;;;12.30;99.90;;;;;;6132239;23;20366;-78
2022/08/31 06:30:20;;;;;;;2.08;0.90;;;12.30;99.90;;;;;;6153880;23;20025;-80
2022/08/31 06:32:50;;;;;;;2.08;0.85;;;12.30;99.90;;;;;;6129736;23;20494;-81
2022/08/31 06:35:24;;;;;;;6.65;0.65;;;12.30;99.90;;;;;;6157408;23;20033;-81
2022/08/31 06:38:10;;;;;;;4.25;0.80;;;12.30;99.90;;;;;;6177448;23;20561;-77
2022/08/31 06:40:59;;;;;;;3.97;0.93;;;12.30;99.90;;;;;;6154998;23;20063;-84
2022/08/31 06:43:43;;;;;;;3.67;1.30;;;12.30;99.90;;;;;;6181312;23;20020;-80
2022/08/31 06:46:40;;;;;;;4.15;0.90;;;12.30;99.90;;;;;;6155721;23;20028;-80
2022/08/31 06:49:21;;;;;;;2.65;1.20;;;12.30;99.90;;;;;;6155855;23;20458;-81
2022/08/31 06:51:51;;;;;;;1.42;1.00;;;12.30;99.90;;;;;;6157116;23;20021;-81
2022/08/31 06:54:21;;;;;;;4.47;1.10;;;12.30;99.90;;;;;;6157077;23;20021;-81
2022/08/31 06:57:08;;;;;;;4.78;1.40;;;12.30;99.90;;;;;;6184612;23;20031;-76
2022/08/31 06:59:56;;;;;;;1.60;1.00;;;12.20;99.90;;;;;;6180805;23;20164;-74
2022/08/31 07:02:42;;;;;;;1.98;1.30;;;12.20;99.90;;;;;;6154966;23;20032;-74
2022/08/31 07:05:11;;;;;;;3.50;1.60;;;12.20;99.90;;;;;;6179994;23;20032;-74
2022/08/31 07:07:38;;;;;;;3.70;1.48;;;12.20;99.90;;;;;;6155323;23;20071;-73
2022/08/31 07:10:09;;;;;;;1.92;1.10;;;12.20;99.90;;;;;;6134530;23;20064;-73
2022/08/31 07:12:38;;;;;;;4.63;0.90;;;12.20;99.90;;;;;;6102296;23;20486;-74
2022/08/31 07:15:12;;;;;;;2.33;1.35;;;12.20;99.90;;;;;;6126498;23;20021;-75
2022/08/31 07:17:48;;;;;;;4.68;1.17;;;12.20;99.90;;;;;;6101664;23;20084;-76
2022/08/31 07:20:18;;;;;;;2.67;0.73;;;12.30;99.90;;;;;;6102884;23;20022;-82
2022/08/31 07:22:45;;;;;;;2.90;1.17;;;12.30;99.90;;;;;;6103061;23;20056;-81
2022/08/31 07:25:29;;;;;;;1.38;0.98;;;12.30;99.90;;;;;;6102185;23;20025;-80
2022/08/31 07:27:58;;;;;;;1.48;1.05;;;12.30;99.90;;;;;;6101802;23;20025;-80
2022/08/31 07:30:28;;;;;;;1.77;0.80;;;12.30;99.90;;;;;;6152876;23;20032;-82
2022/08/31 07:32:55;;;;;;;3.97;0.98;;;12.30;99.90;;;;;;6127060;23;20053;-76
2022/08/31 07:35:24;;;;;;;3.25;1.15;;;12.40;99.90;;;;;;6101566;23;20120;-76
2022/08/31 07:44:04;;;;;;;4.10;1.30;;;12.50;99.90;;;;;;6126670;23;20851;-80
2022/08/31 07:46:34;;;;;;;1.02;0.85;;;12.60;99.90;;;;;;6126180;23;20070;-76
2022/08/31 07:49:03;;;;;;;5.05;1.10;;;12.60;99.90;;;;;;6126126;23;20022;-78
2022/08/31 07:51:53;;;;;;;4.45;1.65;;;12.50;99.90;;;;;;6137564;23;20022;-76
2022/08/31 07:54:48;;;;;;;1.08;1.00;;;12.50;99.90;;;;;;6117917;23;20025;-78
2022/08/31 07:57:28;;;;;;;2.15;0.75;;;12.50;99.90;;;;;;6125519;23;20028;-78
2022/08/31 08:00:07;;;;;;;4.00;1.70;;;12.50;99.90;;;;;;6126095;23;20029;-74
2022/08/31 08:02:45;;;;;;;1.48;1.00;;;12.50;99.90;;;;;;6151456;23;20025;-73
2022/08/31 08:05:19;;;;;;;3.00;1.00;;;12.50;99.90;;;;;;6126139;23;20030;-73
2022/08/31 08:08:11;;;;;;;4.50;1.00;;;12.50;99.90;;;;;;6125298;23;20029;-73
2022/08/31 08:11:19;;;;;;;1.48;1.15;;;12.50;99.90;;;;;;6061730;23;20023;-74
2022/08/31 08:14:10;;;;;;;2.60;1.15;;;12.50;99.90;;;;;;6061594;23;20397;-74
2022/08/31 08:16:55;;;;;;;4.65;1.30;;;12.50;99.90;;;;;;6130350;23;20748;-75
2022/08/31 08:19:52;;;;;;;1.58;1.00;;;12.50;99.90;;;;;;6112839;23;20029;-73
2022/08/31 08:22:20;;;;;;;5.53;1.15;;;12.40;99.90;;;;;;6124778;23;20056;-74
2022/08/31 08:25:10;;;;;;;1.90;1.25;;;12.40;99.90;;;;;;6151178;23;20041;-75
2022/08/31 08:27:46;;;;;;;1.70;1.05;;;12.40;99.90;;;;;;6150699;23;20021;-73
2022/08/31 08:30:35;;;;;;;3.45;1.73;;;12.40;99.90;;;;;;6105589;23;20021;-74
2022/08/31 08:33:03;;;;;;;3.85;1.35;;;12.40;99.90;;;;;;6125865;23;20106;-74
2022/08/31 08:35:33;;;;;;;3.28;1.15;;;12.30;99.90;;;;;;6123063;23;20018;-75
2022/08/31 08:38:02;;;;;;;2.38;1.70;;;12.40;99.90;;;;;;6098671;23;20053;-73
2022/08/31 08:40:40;;;;;;;3.33;1.48;;;12.40;99.90;;;;;;6123523;23;20080;-75
2022/08/31 08:43:10;;;;;;;1.65;0.88;;;12.40;99.90;;;;;;6151024;23;20104;-74
2022/08/31 08:45:38;;;;;;;2.08;1.20;;;12.40;99.90;;;;;;6100105;23;20417;-74
2022/08/31 08:48:12;;;;;;;3.00;1.48;;;12.40;99.90;;;;;;6124849;23;20446;-76
2022/08/31 08:50:44;;;;;;;2.55;1.40;;;12.40;99.90;;;;;;6149899;23;20026;-76
2022/08/31 08:53:25;;;;;;;3.05;1.50;;;12.40;99.90;;;;;;6099760;23;20021;-76
2022/08/31 08:56:11;;;;;;;8.02;1.50;;;12.40;99.90;;;;;;6123576;23;20395;-77
2022/08/31 08:58:43;;;;;;;1.92;1.30;;;12.40;99.90;;;;;;6151167;23;20040;-76
2022/08/31 09:01:21;;;;;;;3.10;1.20;;;12.40;99.90;;;;;;6099494;23;20037;-77
2022/08/31 09:04:04;;;;;;;3.53;1.38;;;12.30;99.90;;;;;;6124524;23;20021;-76
2022/08/31 09:07:11;;;;;;;2.70;1.50;;;12.20;99.90;;;;;;6129399;23;20037;-73
2022/08/31 09:09:49;;;;;;;3.85;1.23;;;12.20;99.90;;;;;;6125042;23;20017;-73
2022/08/31 09:12:30;;;;;;;1.10;1.00;;;12.10;99.90;;;;;;6125270;23;20025;-76
2022/08/31 09:15:35;;;;;;;2.25;1.20;;;12.00;99.90;;;;;;6155335;23;20072;-75
2022/08/31 09:18:25;;;;;;;1.90;0.77;;;12.00;99.90;;;;;;6128522;23;20053;-75
2022/08/31 09:21:19;;;;;;;2.33;0.60;;;12.00;99.90;;;;;;6128262;23;20025;-73
2022/08/31 09:24:00;;;;;;;1.38;0.90;;;11.90;99.90;;;;;;6129083;23;20402;-75
2022/08/31 09:26:46;;;;;;;1.55;1.10;;;11.90;99.90;;;;;;6128114;23;20022;-80
2022/08/31 09:29:29;;;;;;;3.25;0.80;;;12.00;99.90;;;;;;6129016;23;20080;-77
2022/08/31 09:32:06;;;;;;;3.83;0.95;;;12.00;99.90;;;;;;6155140;23;20021;-77
2022/08/31 09:34:37;;;;;;;4.30;1.30;;;12.00;99.90;;;;;;6155072;23;20425;-78
2022/08/31 09:37:20;;;;;;;3.63;1.13;;;12.00;99.90;;;;;;6155126;23;20049;-77
2022/08/31 09:39:51;;;;;;;1.52;0.75;;;12.00;99.90;;;;;;6154358;23;20056;-79
2022/08/31 09:42:29;;;;;;;1.77;1.10;;;12.00;99.90;;;;;;6154418;23;20049;-81
2022/08/31 09:45:02;;;;;;;1.67;0.73;;;12.00;99.90;;;;;;6155615;23;20048;-79
2022/08/31 09:47:51;;;;;;;2.03;0.90;;;12.00;99.90;;;;;;6154364;23;20060;-79
2022/08/31 09:50:36;;;;;;;2.28;1.00;;;12.00;99.90;;;;;;6155047;23;20451;-80
2022/08/31 09:56:16;;;;;;;2.05;1.05;;;12.10;99.90;;;;;;6155665;23;20075;-75
2022/08/31 09:58:49;;;;;;;2.85;1.08;;;12.10;99.90;;;;;;6154932;23;20009;-76
2022/08/31 10:01:27;;;;;;;5.25;1.20;;;12.20;99.90;;;;;;6155823;23;20025;-78
2022/08/31 10:04:19;;;;;;;3.50;1.75;;;12.20;99.90;;;;;;6154795;23;20120;-78
2022/08/31 10:07:00;;;;;;;5.10;1.48;;;12.30;99.90;;;;;;6128102;23;20455;-77
2022/08/31 10:09:35;;;;;;;2.13;0.93;;;12.40;99.90;;;;;;6153729;23;20045;-76
2022/08/31 10:12:12;;;;;;;2.58;1.33;;;12.40;99.90;;;;;;6153065;23;20025;-76
2022/08/31 10:14:49;;;;;;;7.68;1.45;;;12.40;99.90;;;;;;6128846;23;20021;-76
2022/08/31 10:17:26;;;;;;;3.17;1.63;;;12.30;99.90;;;;;;6128210;23;20025;-75
2022/08/31 10:20:04;;;;;;;6.38;1.70;;;12.30;99.90;;;;;;6155290;23;20033;-74
2022/08/31 10:22:40;;;;;;;4.13;1.20;;;12.30;99.90;;;;;;6103276;23;20396;-82
2022/08/31 10:25:21;;;;;;;1.42;0.90;;;12.30;99.90;;;;;;6154233;23;20458;-80
2022/08/31 10:27:57;;;;;;;2.00;1.00;;;12.30;99.90;;;;;;6125839;23;20021;-78
2022/08/31 10:30:38;;;;;;;1.52;0.80;;;12.40;99.90;;;;;;6152081;23;20056;-76
2022/08/31 10:33:13;;;;;;;1.95;1.05;;;12.40;99.90;;;;;;6153811;23;20021;-71
2022/08/31 10:35:59;;;;;;;2.17;1.23;;;12.40;99.90;;;;;;6153809;23;20450;-73
2022/08/31 10:38:36;;;;;;;2.63;0.80;;;12.50;99.90;;;;;;6126988;23;20530;-76
2022/08/31 10:41:13;;;;;;;1.70;0.90;;;12.60;99.90;;;;;;6125458;23;20501;-81
2022/08/31 10:43:47;;;;;;;1.08;0.80;;;12.60;99.90;;;;;;6150793;23;20026;-82
2022/08/31 10:46:16;;;;;;;2.50;0.70;;;12.60;99.90;;;;;;6150301;23;20033;-81
2022/08/31 10:48:52;;;;;;;1.77;0.77;;;12.50;99.90;;;;;;6151711;23;20534;-81
2022/08/31 10:51:25;;;;;;;1.27;0.75;;;12.50;99.90;;;;;;6152920;23;20026;-76
2022/08/31 10:54:11;;;;;;;2.30;1.00;;;12.40;99.90;;;;;;6152794;23;20052;-77
2022/08/31 10:56:49;;;;;;;5.55;1.27;;;12.50;99.90;;;;;;6152904;23;20021;-78
2022/08/31 10:59:33;;;;;;;4.57;0.90;;;12.50;99.90;;;;;;6124537;23;20109;-77
2022/08/31 11:02:37;;;;;;;3.13;1.00;;;12.50;99.90;;;;;;6152486;23;20093;-75
2022/08/31 11:05:28;;;;;;;5.20;1.00;;;12.40;99.90;;;;;;6126295;23;20017;-81
2022/08/31 11:08:28;;;;;;;5.68;1.10;;;12.40;99.90;;;;;;6125090;23;20116;-75
2022/08/31 11:11:00;;;;;;;5.43;1.23;;;12.40;99.90;;;;;;6114269;23;20029;-76
2022/08/31 11:13:55;;;;;;;7.65;1.20;;;12.40;99.90;;;;;;6124966;23;20028;-81
2022/08/31 11:16:46;;;;;;;5.07;1.30;;;12.40;99.90;;;;;;6153086;23;20025;-82
2022/08/31 11:19:49;;;;;;;4.47;1.30;;;12.50;99.90;;;;;;6153888;23;20022;-77
2022/08/31 11:23:04;;;;;;;;;;;12.50;99.90;;;;;;6150136;23;20029;-78
2022/08/31 11:26:54;;;;;;;2.67;1.38;;;12.60;99.90;;;;;;6131729;23;19921;-78
2022/08/31 11:29:40;;;;;;;3.80;1.40;;;12.60;99.90;;;;;;6033125;23;20042;-77
2022/08/31 11:32:18;;;;;;;2.60;0.90;;;12.70;99.90;;;;;;6031130;23;20047;-76
2022/08/31 11:34:52;;;;;;;2.75;1.13;;;12.70;99.90;;;;;;6111083;23;20030;-75
2022/08/31 11:37:59;;;;;;;3.72;1.30;;;12.80;99.90;;;;;;6150608;23;20021;-80
2022/08/31 11:41:01;;;;;;;2.00;1.30;;;13.00;99.90;;;;;;6124256;23;20510;-77
2022/08/31 11:43:50;;;;;;;2.88;1.27;;;13.00;99.90;;;;;;6061252;23;20023;-76
2022/08/31 11:47:00;;;;;;;3.03;1.35;;;13.10;99.90;;;;;;6013461;23;20148;-75
2022/08/31 11:49:47;;;;;;;3.65;1.67;;;13.20;99.90;;;;;;6142818;23;20354;-75
2022/08/31 11:52:33;;;;;;;1.63;1.52;;;13.20;99.90;;;;;;6126078;23;20053;-77
2022/08/31 11:55:24;;;;;;;3.17;1.13;;;13.20;99.90;;;;;;6152733;23;20021;-76
2022/08/31 11:58:32;;;;;;;1.60;1.05;;;13.20;99.90;;;;;;6152316;23;20108;-76
2022/08/31 12:01:32;;;;;;;3.53;1.15;;;13.20;99.90;;;;;;6126454;23;20057;-76
2022/08/31 12:04:03;;;;;;;1.73;1.02;;;13.00;99.90;;;;;;6152215;23;20029;-81
2022/08/31 12:07:07;;;;;;;2.13;1.00;;;12.80;99.90;;;;;;6151875;23;20032;-80
2022/08/31 12:10:25;;;;;;;3.78;1.10;;;12.80;99.90;;;;;;6125150;23;20076;-76
2022/08/31 12:13:33;;;;;;;1.02;0.77;;;12.90;99.90;;;;;;6151721;23;20068;-75
2022/08/31 12:16:50;;;;;;;2.50;1.20;;;12.80;99.90;;;;;;6151678;23;20541;-76
2022/08/31 12:20:03;;;;;;;3.50;0.95;;;12.80;99.90;;;;;;6093102;23;20116;-78
2022/08/31 12:23:34;;;;;;;1.73;1.42;;;12.90;99.90;;;;;;6125151;23;20029;-76
2022/08/31 12:26:43;;;;;;;1.90;1.23;;;12.80;99.90;;;;;;6147707;23;20022;-75
2022/08/31 12:29:22;;;;;;;2.08;1.10;;;12.70;99.90;;;;;;6109102;23;20029;-75
2022/08/31 12:32:14;;;;;;;1.00;0.90;;;12.60;99.90;;;;;;6151978;23;20033;-76
2022/08/31 12:34:48;;;;;;;3.50;1.23;;;12.60;99.90;;;;;;6152526;23;20021;-75
2022/08/31 12:37:29;;;;;;;0.98;0.88;;;12.60;99.90;;;;;;6151700;23;20045;-77
2022/08/31 12:40:22;;;;;;;2.38;0.75;;;12.70;99.90;;;;;;6152218;23;20072;-75
2022/08/31 12:43:00;;;;;;;2.75;1.27;;;12.70;99.90;;;;;;6089610;23;20026;-83
2022/08/31 12:46:27;;;;;;;2.63;1.10;;;12.80;99.90;;;;;;6153616;23;20025;-80
2022/08/31 12:49:22;;;;;;;1.95;1.42;;;12.90;99.90;;;;;;6112386;23;20521;-81
2022/08/31 12:51:57;;;;;;;3.08;1.58;;;12.90;99.90;;;;;;6153882;23;20028;-84
2022/08/31 12:55:06;;;;;;;2.80;1.77;;;12.80;99.90;;;;;;6152743;23;20025;-82
2022/08/31 12:57:49;;;;;;;4.35;1.80;;;12.80;99.90;;;;;;6151833;23;20076;-77
2022/08/31 13:00:24;;;;;;;1.73;1.25;;;12.80;99.90;;;;;;6151798;23;20025;-79
2022/08/31 13:02:58;;;;;;;1.40;0.93;;;12.80;99.90;;;;;;6152145;23;20021;-82
2022/08/31 13:05:31;;;;;;;2.67;1.20;;;12.80;99.90;;;;;;6126024;23;20060;-79
2022/08/31 13:08:00;;;;;;;2.70;1.00;;;12.70;99.90;;;;;;6152097;23;20026;-77
2022/08/31 13:10:33;;;;;;;1.95;0.80;;;12.70;99.90;;;;;;6124465;23;20022;-76
2022/08/31 13:13:07;;;;;;;2.83;1.17;;;12.70;99.90;;;;;;6151601;23;20017;-81
2022/08/31 13:15:38;;;;;;;6.53;1.20;;;12.70;99.90;;;;;;6152205;23;20421;-81
2022/08/31 13:18:11;;;;;;;2.67;0.85;;;12.70;99.90;;;;;;6151339;23;20025;-79
2022/08/31 13:20:42;;;;;;;;;;;12.70;99.90;;;;;;6125313;23;20120;-83
2022/08/31 13:23:13;;;;;;;2.65;0.77;;;12.70;99.90;;;;;;6151747;23;20337;-77
2022/08/31 13:25:43;;;;;;;1.85;0.88;;;12.50;99.90;;;;;;6124562;23;20028;-75
2022/08/31 13:28:29;;;;;;;1.38;0.80;;;12.50;99.90;;;;;;6123776;23;20530;-77
2022/08/31 13:31:00;;;;;;;1.65;0.93;;;12.40;99.90;;;;;;6150492;23;20525;-75
2022/08/31 13:33:31;;;;;;;0.80;0.55;;;12.40;99.90;;;;;;6151730;23;20025;-76
2022/08/31 13:36:13;;;;;;;3.72;0.98;;;12.40;99.90;;;;;;6101347;23;20065;-75
2022/08/31 13:38:49;;;;;;;2.30;0.90;;;12.30;99.90;;;;;;6124142;23;20053;-75
2022/08/31 13:41:29;;;;;;;3.72;0.90;;;12.20;99.90;;;;;;6148516;23;20112;-73
2022/08/31 13:44:05;;;;;;;3.28;1.20;;;12.20;99.90;;;;;;6151699;23;20030;-78
2022/08/31 13:46:36;;;;;;;0.98;0.80;;;12.20;99.90;;;;;;6126202;23;20045;-76
2022/08/31 13:49:24;;;;;;;1.45;0.82;;;12.20;99.90;;;;;;6125068;23;20028;-79
2022/08/31 13:51:53;;;;;;;3.90;0.93;;;12.10;99.90;;;;;;6150467;23;20025;-83